Burrton, Kansas
Current Conditions -  °F | °C
As of 9:52 PM on Sunday 25 Jan 2015 (Local Time) from KHUT Reporting Station
Clear Clear  
Wind Chill: -4°   Ceiling: Unl
Heat Index: -4°   Visibility: 10mi
Dew Point: -6°   Wind: 3mph
Humidity: 88%   Direction: 280°W
Pressure: 30.12"   Gusts: NA
Location:  38.02°N, 97.67°W
Report Text: KHUT 260352Z 28003KT 10SM CLR M04/M06 A3012 RMK AO2 SLP205 T10391056
Loading
Personal Weather Stations






























Interactive Weather Map New forecast layout! Learn more

10-Day Weather Forecast

Advertisements
Track Severe Weather on mobile